createdAt,value
2022-08-26T00:02:15.437Z,22.27
2022-08-26T00:04:45.726Z,22.13
2022-08-26T00:07:12.170Z,22.20
2022-08-26T00:09:40.197Z,22.02
2022-08-26T00:12:07.724Z,22.16
2022-08-26T00:14:36.456Z,22.13
2022-08-26T00:17:02.947Z,22.03
2022-08-26T00:19:31.432Z,21.89
2022-08-26T00:21:57.923Z,21.75
2022-08-26T00:24:24.659Z,21.87
2022-08-26T00:26:52.245Z,22.01
2022-08-26T00:29:19.263Z,21.84
2022-08-26T00:31:47.968Z,21.82
2022-08-26T00:34:16.811Z,21.71
2022-08-26T00:36:47.380Z,21.72
2022-08-26T00:39:15.682Z,21.72
2022-08-26T00:41:43.116Z,21.75
2022-08-26T00:44:11.169Z,21.45
2022-08-26T00:46:46.547Z,21.29
2022-08-26T00:49:18.400Z,21.00
2022-08-26T00:51:51.201Z,20.82
2022-08-26T00:54:21.272Z,20.86
2022-08-26T00:56:57.911Z,21.07
2022-08-26T00:59:32.812Z,20.89
2022-08-26T01:02:02.713Z,20.83
2022-08-26T01:04:31.238Z,20.86
2022-08-26T01:06:57.716Z,20.72
2022-08-26T01:09:24.422Z,20.71
2022-08-26T01:11:55.333Z,20.52
2022-08-26T01:14:23.009Z,20.48
2022-08-26T01:16:50.991Z,20.45
2022-08-26T01:19:27.860Z,20.44
2022-08-26T01:22:03.604Z,20.41
2022-08-26T01:24:30.760Z,20.49
2022-08-26T01:27:01.634Z,20.49
2022-08-26T01:29:30.617Z,20.40
2022-08-26T01:31:58.132Z,20.39
2022-08-26T01:34:35.024Z,20.29
2022-08-26T01:37:16.068Z,20.38
2022-08-26T01:39:46.686Z,20.30
2022-08-26T01:42:16.172Z,20.29
2022-08-26T01:44:49.170Z,20.38
2022-08-26T01:47:18.168Z,20.40
2022-08-26T01:49:48.002Z,20.43
2022-08-26T01:52:22.931Z,20.28
2022-08-26T01:54:52.897Z,20.34
2022-08-26T01:57:21.685Z,20.38
2022-08-26T01:59:51.840Z,20.22
2022-08-26T02:02:18.748Z,20.21
2022-08-26T02:04:57.817Z,20.09
2022-08-26T02:07:26.682Z,20.07
2022-08-26T02:09:54.414Z,19.92
2022-08-26T02:12:21.715Z,20.10
2022-08-26T02:14:53.724Z,20.04
2022-08-26T02:17:24.006Z,20.04
2022-08-26T02:19:51.740Z,20.03
2022-08-26T02:22:21.308Z,19.97
2022-08-26T02:24:58.081Z,19.84
2022-08-26T02:27:32.299Z,19.86
2022-08-26T02:30:10.760Z,19.81
2022-08-26T02:32:38.177Z,19.79
2022-08-26T02:35:10.691Z,19.72
2022-08-26T02:37:37.734Z,19.70
2022-08-26T02:40:06.975Z,19.72
2022-08-26T02:42:33.923Z,19.66
2022-08-26T02:45:01.229Z,19.72
2022-08-26T02:47:29.021Z,19.62
2022-08-26T02:49:55.832Z,19.55
2022-08-26T02:52:22.231Z,19.55
2022-08-26T02:54:49.456Z,19.49
2022-08-26T02:57:17.211Z,19.44
2022-08-26T02:59:43.724Z,19.34
2022-08-26T03:02:11.279Z,19.51
2022-08-26T03:04:39.061Z,19.59
2022-08-26T03:07:06.087Z,19.54
2022-08-26T03:09:34.387Z,19.55
2022-08-26T03:12:01.139Z,19.44
2022-08-26T03:14:28.885Z,19.28
2022-08-26T03:16:56.360Z,19.25
2022-08-26T03:19:25.735Z,19.18
2022-08-26T03:21:53.689Z,19.44
2022-08-26T03:24:27.103Z,19.29
2022-08-26T03:26:53.494Z,19.23
2022-08-26T03:29:40.428Z,19.22
2022-08-26T03:32:07.721Z,19.01
2022-08-26T03:34:35.019Z,18.75
2022-08-26T03:37:01.909Z,18.80
2022-08-26T03:39:31.451Z,18.70
2022-08-26T03:41:58.856Z,18.68
2022-08-26T03:44:25.318Z,18.54
2022-08-26T03:46:51.724Z,18.52
2022-08-26T03:49:18.188Z,18.44
2022-08-26T03:51:44.918Z,18.34
2022-08-26T03:54:12.047Z,18.31
2022-08-26T03:56:39.121Z,18.46
2022-08-26T03:59:07.594Z,18.50
2022-08-26T04:01:34.485Z,18.40
2022-08-26T04:04:01.435Z,18.46
2022-08-26T04:06:40.105Z,18.34
2022-08-26T04:09:13.768Z,18.40
2022-08-26T04:11:43.525Z,18.32
2022-08-26T04:14:20.206Z,18.33
2022-08-26T04:16:47.999Z,18.25
2022-08-26T04:19:15.977Z,18.27
2022-08-26T04:21:44.074Z,18.38
2022-08-26T04:24:13.354Z,18.46
2022-08-26T04:26:42.716Z,18.52
2022-08-26T04:29:15.872Z,18.49
2022-08-26T04:31:42.494Z,18.57
2022-08-26T04:34:11.001Z,18.57
2022-08-26T04:36:38.048Z,18.58
2022-08-26T04:39:05.348Z,18.51
2022-08-26T04:41:35.434Z,18.54
2022-08-26T04:44:03.874Z,18.53
2022-08-26T04:46:30.415Z,18.64
2022-08-26T04:48:56.885Z,18.71
2022-08-26T04:51:27.961Z,18.91
2022-08-26T04:53:59.597Z,18.87
2022-08-26T04:56:29.119Z,18.78
2022-08-26T04:58:56.775Z,18.88
2022-08-26T05:01:24.207Z,18.90
2022-08-26T05:03:51.781Z,18.81
2022-08-26T05:06:19.929Z,18.63
2022-08-26T05:08:46.951Z,18.72
2022-08-26T05:11:14.009Z,18.71
2022-08-26T05:13:41.962Z,18.68
2022-08-26T05:16:11.585Z,18.75
2022-08-26T05:18:39.739Z,18.82
2022-08-26T05:21:07.111Z,18.95
2022-08-26T05:23:35.735Z,19.18
2022-08-26T05:26:02.431Z,19.30
2022-08-26T05:28:32.192Z,19.48
2022-08-26T05:30:58.677Z,19.35
2022-08-26T05:33:26.919Z,19.42
2022-08-26T05:35:53.483Z,19.55
2022-08-26T05:38:21.739Z,19.66
2022-08-26T05:40:52.909Z,19.54
2022-08-26T05:43:21.328Z,19.60
2022-08-26T05:45:50.075Z,19.46
2022-08-26T05:48:22.664Z,19.36
2022-08-26T05:50:52.799Z,19.30
2022-08-26T05:53:22.523Z,19.26
2022-08-26T05:55:52.727Z,19.51
2022-08-26T05:58:21.403Z,19.95
2022-08-26T06:01:04.504Z,20.22
2022-08-26T06:03:33.835Z,20.16
2022-08-26T06:06:07.894Z,20.35
2022-08-26T06:08:35.437Z,20.07
2022-08-26T06:11:04.834Z,20.34
2022-08-26T06:13:34.347Z,20.19
2022-08-26T06:16:09.536Z,20.68
2022-08-26T06:18:39.448Z,21.51
2022-08-26T06:21:14.595Z,21.77
2022-08-26T06:24:01.208Z,21.88
2022-08-26T06:26:28.199Z,22.06
2022-08-26T06:28:55.559Z,22.39
2022-08-26T06:31:23.290Z,22.06
2022-08-26T06:33:50.673Z,21.93
2022-08-26T06:36:22.626Z,22.99
2022-08-26T06:38:51.801Z,23.70
2022-08-26T06:41:21.150Z,23.89
2022-08-26T06:43:47.815Z,23.83
2022-08-26T06:46:18.879Z,24.47
2022-08-26T06:48:45.873Z,25.32
2022-08-26T06:51:22.442Z,25.51
2022-08-26T06:53:52.377Z,25.65
2022-08-26T06:56:22.399Z,26.32
2022-08-26T06:58:49.417Z,25.78
2022-08-26T07:01:28.632Z,25.46
2022-08-26T07:03:57.653Z,26.47
2022-08-26T07:06:25.241Z,25.11
2022-08-26T07:08:53.885Z,25.31
2022-08-26T07:11:20.852Z,24.92
2022-08-26T07:13:48.126Z,24.54
2022-08-26T07:16:17.762Z,24.69
2022-08-26T07:18:48.513Z,25.18
2022-08-26T07:21:18.416Z,25.08
2022-08-26T07:23:48.907Z,24.64
2022-08-26T07:26:22.342Z,24.55
2022-08-26T07:28:53.537Z,24.80
2022-08-26T07:31:22.708Z,25.51
2022-08-26T07:33:50.474Z,26.14
2022-08-26T07:36:19.251Z,27.51
2022-08-26T07:38:46.317Z,26.68
2022-08-26T07:41:16.078Z,27.39
2022-08-26T07:43:43.841Z,27.09
2022-08-26T07:46:15.891Z,28.44
2022-08-26T07:48:46.211Z,28.48
2022-08-26T07:51:17.725Z,29.04
2022-08-26T07:53:45.239Z,28.00
2022-08-26T07:56:16.504Z,29.02
2022-08-26T07:58:43.755Z,29.27
2022-08-26T08:01:11.647Z,30.00
2022-08-26T08:03:38.159Z,29.89
2022-08-26T08:06:04.725Z,29.93
2022-08-26T08:08:35.064Z,29.19
2022-08-26T08:11:02.228Z,29.99
2022-08-26T08:13:29.250Z,29.80
2022-08-26T08:15:55.823Z,30.09
2022-08-26T08:18:23.365Z,30.33
2022-08-26T08:20:59.146Z,31.61
2022-08-26T08:23:32.419Z,31.26
2022-08-26T08:26:10.221Z,30.99
2022-08-26T08:28:39.407Z,30.56
2022-08-26T08:31:08.025Z,29.62
2022-08-26T08:33:35.423Z,30.48
2022-08-26T08:36:02.030Z,30.64
2022-08-26T08:38:30.274Z,30.82
2022-08-26T08:40:58.933Z,29.91
2022-08-26T08:43:40.100Z,29.75
2022-08-26T08:46:15.650Z,31.71
2022-08-26T08:48:46.488Z,32.14
2022-08-26T08:51:30.083Z,32.83
2022-08-26T08:53:56.821Z,33.53
2022-08-26T08:56:38.114Z,31.75
2022-08-26T08:59:20.611Z,32.90
2022-08-26T09:01:57.922Z,32.27
2022-08-26T09:04:58.422Z,33.16
2022-08-26T09:07:36.871Z,34.01
2022-08-26T09:10:28.278Z,32.23
2022-08-26T09:12:55.152Z,31.10
2022-08-26T09:15:29.852Z,32.56
2022-08-26T09:18:19.307Z,32.27
2022-08-26T09:21:13.519Z,34.50
2022-08-26T09:23:42.976Z,33.91
2022-08-26T09:26:24.724Z,34.13
2022-08-26T09:29:01.393Z,32.82
2022-08-26T09:31:31.776Z,34.57
2022-08-26T09:34:07.467Z,32.67
2022-08-26T09:36:41.219Z,33.85
2022-08-26T09:39:24.776Z,33.71
2022-08-26T09:42:09.596Z,34.99
2022-08-26T09:44:59.435Z,34.17
2022-08-26T09:47:30.113Z,34.75
2022-08-26T09:49:59.805Z,34.33
2022-08-26T09:52:28.055Z,34.14
2022-08-26T09:55:21.929Z,35.28
2022-08-26T09:57:54.077Z,35.50
2022-08-26T10:00:42.177Z,34.16
2022-08-26T10:03:11.945Z,34.22
2022-08-26T10:05:56.168Z,33.60
2022-08-26T10:08:26.099Z,34.69
2022-08-26T10:10:55.415Z,35.15
2022-08-26T10:13:31.386Z,35.07
2022-08-26T10:16:17.832Z,38.04
2022-08-26T10:19:02.700Z,38.60
2022-08-26T10:21:39.089Z,37.57
2022-08-26T10:24:11.374Z,35.31
2022-08-26T10:27:06.308Z,37.25
2022-08-26T10:29:44.419Z,36.16
2022-08-26T10:32:31.063Z,35.21
2022-08-26T10:34:57.676Z,36.51
2022-08-26T10:37:32.991Z,34.48
2022-08-26T10:40:11.089Z,32.99
2022-08-26T10:42:55.373Z,36.19
2022-08-26T10:45:26.433Z,37.01
2022-08-26T10:48:02.931Z,35.76
2022-08-26T10:50:41.927Z,35.09
2022-08-26T10:53:17.697Z,36.08
2022-08-26T10:55:52.526Z,35.44
2022-08-26T10:58:26.739Z,34.46
2022-08-26T11:01:23.741Z,34.94
2022-08-26T11:04:00.339Z,34.45
2022-08-26T11:06:31.410Z,35.10
2022-08-26T11:09:03.647Z,34.68
2022-08-26T11:11:39.562Z,34.63
2022-08-26T11:14:08.997Z,37.29
2022-08-26T11:16:48.117Z,35.79
2022-08-26T11:19:59.384Z,36.56
2022-08-26T11:22:47.484Z,36.83
2022-08-26T11:25:24.383Z,35.84
2022-08-26T11:27:58.637Z,35.65
2022-08-26T11:30:25.721Z,33.89
2022-08-26T11:32:58.909Z,34.05
2022-08-26T11:35:26.031Z,34.48
2022-08-26T11:38:00.467Z,33.50
2022-08-26T11:40:35.267Z,33.28
2022-08-26T11:43:08.949Z,32.36
2022-08-26T11:45:40.714Z,33.77
2022-08-26T11:48:23.872Z,33.48
2022-08-26T11:50:58.872Z,34.11
2022-08-26T11:53:27.244Z,32.78
2022-08-26T11:55:59.485Z,31.35
2022-08-26T11:58:28.030Z,31.53
2022-08-26T12:01:03.502Z,31.26
2022-08-26T12:03:45.891Z,31.61
2022-08-26T12:06:37.643Z,31.16
2022-08-26T12:09:19.681Z,30.97
2022-08-26T12:11:47.661Z,31.58
2022-08-26T12:14:24.353Z,30.97
2022-08-26T12:16:54.525Z,31.37
2022-08-26T12:19:33.267Z,31.21
2022-08-26T12:22:07.892Z,31.17
2022-08-26T12:24:35.354Z,30.86
2022-08-26T12:27:20.971Z,31.57
2022-08-26T12:30:00.881Z,30.40
2022-08-26T12:32:31.274Z,31.10
2022-08-26T12:35:00.827Z,31.42
2022-08-26T12:37:29.694Z,30.45
2022-08-26T12:40:25.096Z,29.17
2022-08-26T12:42:51.773Z,29.42
2022-08-26T12:45:37.309Z,29.26
2022-08-26T12:48:24.564Z,28.75
2022-08-26T12:50:53.220Z,28.40
2022-08-26T12:53:31.290Z,28.36
2022-08-26T12:56:25.023Z,27.03
2022-08-26T12:59:17.600Z,26.65
2022-08-26T13:01:47.276Z,25.68
2022-08-26T13:04:33.687Z,25.94
2022-08-26T13:07:35.125Z,25.19
2022-08-26T13:10:02.322Z,25.68
2022-08-26T13:12:32.062Z,25.14
2022-08-26T13:15:01.039Z,24.52
2022-08-26T13:17:29.417Z,24.13
2022-08-26T13:20:01.280Z,23.96
2022-08-26T13:22:30.014Z,23.82
2022-08-26T13:24:56.812Z,23.85
2022-08-26T13:27:26.165Z,23.43
2022-08-26T13:29:53.940Z,23.16
2022-08-26T13:32:23.803Z,23.30
2022-08-26T13:34:56.709Z,22.54
2022-08-26T13:37:34.617Z,22.62
2022-08-26T13:40:03.003Z,23.23
2022-08-26T13:42:29.687Z,22.95
2022-08-26T13:44:58.172Z,23.47
2022-08-26T13:47:25.888Z,23.31
2022-08-26T13:49:53.539Z,23.26
2022-08-26T13:52:30.826Z,22.73
2022-08-26T13:54:58.741Z,22.35
2022-08-26T13:57:27.873Z,22.49
2022-08-26T13:59:56.554Z,22.01
2022-08-26T14:02:23.035Z,21.55
2022-08-26T14:04:49.437Z,22.05
2022-08-26T14:07:15.839Z,22.45
2022-08-26T14:09:45.007Z,22.85
2022-08-26T14:12:11.509Z,22.40
2022-08-26T14:14:38.036Z,22.43
2022-08-26T14:17:04.645Z,22.34
2022-08-26T14:19:31.528Z,22.11
2022-08-26T14:22:00.669Z,22.04
2022-08-26T14:24:27.807Z,22.01
2022-08-26T14:26:54.452Z,22.21
2022-08-26T14:29:20.827Z,22.46
2022-08-26T14:31:48.364Z,22.93
2022-08-26T14:34:15.198Z,23.52
2022-08-26T14:36:41.689Z,23.73
2022-08-26T14:39:10.655Z,24.08
2022-08-26T14:41:44.866Z,24.43
2022-08-26T14:44:13.897Z,24.41
2022-08-26T14:46:47.277Z,24.29
2022-08-26T14:49:14.168Z,23.97
2022-08-26T14:51:41.009Z,24.37
2022-08-26T14:54:12.272Z,24.74
2022-08-26T14:56:53.807Z,24.61
2022-08-26T14:59:26.143Z,23.95
2022-08-26T15:01:54.346Z,23.58
2022-08-26T15:04:26.779Z,23.58
2022-08-26T15:06:56.571Z,24.63
2022-08-26T15:09:24.558Z,25.13
2022-08-26T15:11:52.990Z,25.04
2022-08-26T15:14:23.979Z,24.88
2022-08-26T15:16:54.799Z,25.16
2022-08-26T15:19:23.450Z,25.43
2022-08-26T15:21:50.888Z,25.34
2022-08-26T15:24:22.793Z,25.16
2022-08-26T15:26:50.077Z,25.79
2022-08-26T15:29:18.747Z,25.07
2022-08-26T15:31:45.750Z,25.48
2022-08-26T15:34:17.035Z,25.89
2022-08-26T15:36:45.492Z,26.18
2022-08-26T15:39:12.515Z,25.75
2022-08-26T15:41:44.017Z,25.96
2022-08-26T15:44:12.346Z,25.84
2022-08-26T15:46:39.225Z,25.82
2022-08-26T15:49:06.415Z,25.84
2022-08-26T15:51:45.704Z,25.68
2022-08-26T15:54:14.155Z,25.73
2022-08-26T15:56:40.625Z,26.06
2022-08-26T15:59:08.073Z,25.34
2022-08-26T16:01:37.454Z,25.69
2022-08-26T16:04:04.998Z,25.66
2022-08-26T16:06:34.239Z,26.12
2022-08-26T16:09:00.669Z,25.91
2022-08-26T16:11:28.327Z,25.89
2022-08-26T16:13:55.240Z,26.30
2022-08-26T16:16:22.343Z,26.09
2022-08-26T16:18:50.508Z,26.17
2022-08-26T16:21:19.789Z,26.30
2022-08-26T16:23:47.028Z,26.33
2022-08-26T16:26:19.399Z,26.16
2022-08-26T16:28:47.334Z,26.03
2022-08-26T16:31:14.681Z,26.09
2022-08-26T16:33:41.509Z,26.05
2022-08-26T16:36:09.872Z,26.07
2022-08-26T16:38:38.873Z,25.90
2022-08-26T16:41:07.643Z,25.84
2022-08-26T16:43:35.123Z,25.96
2022-08-26T16:46:02.421Z,25.89
2022-08-26T16:48:29.070Z,25.77
2022-08-26T16:50:56.120Z,25.70
2022-08-26T16:53:23.988Z,25.56
2022-08-26T16:55:51.667Z,25.28
2022-08-26T16:58:22.021Z,25.34
2022-08-26T17:00:48.900Z,25.10
2022-08-26T17:03:15.950Z,25.27
2022-08-26T17:05:42.506Z,25.05
2022-08-26T17:08:09.173Z,24.96
2022-08-26T17:10:35.774Z,24.95
2022-08-26T17:13:02.866Z,25.12
2022-08-26T17:15:35.857Z,25.18
2022-08-26T17:18:02.313Z,24.96
2022-08-26T17:20:29.921Z,24.67
2022-08-26T17:22:56.665Z,24.82
2022-08-26T17:25:26.761Z,24.69
2022-08-26T17:27:53.588Z,24.81
2022-08-26T17:30:21.113Z,24.87
2022-08-26T17:32:48.210Z,24.65
2022-08-26T17:35:16.732Z,24.59
2022-08-26T17:37:44.969Z,24.49
2022-08-26T17:40:15.609Z,24.38
2022-08-26T17:42:42.456Z,24.48
2022-08-26T17:45:10.171Z,24.36
2022-08-26T17:47:38.564Z,24.42
2022-08-26T17:50:09.131Z,24.44
2022-08-26T17:52:36.761Z,24.31
2022-08-26T17:55:04.723Z,24.14
2022-08-26T17:57:40.635Z,24.05
2022-08-26T18:00:14.493Z,24.06
2022-08-26T18:02:42.675Z,24.23
2022-08-26T18:05:12.076Z,24.12
2022-08-26T18:07:44.081Z,23.98
2022-08-26T18:10:16.610Z,23.74
2022-08-26T18:12:43.600Z,23.73
2022-08-26T18:15:12.380Z,23.63
2022-08-26T18:17:39.300Z,23.50
2022-08-26T18:20:10.078Z,23.56
2022-08-26T18:22:36.518Z,23.75
2022-08-26T18:25:05.046Z,23.68
2022-08-26T18:27:32.318Z,23.52
2022-08-26T18:29:59.172Z,23.41
2022-08-26T18:32:25.676Z,23.52
2022-08-26T18:34:52.266Z,23.63
2022-08-26T18:37:21.239Z,23.56
2022-08-26T18:39:50.887Z,23.47
2022-08-26T18:42:21.681Z,23.46
2022-08-26T18:44:50.886Z,23.60
2022-08-26T18:47:18.287Z,23.52
2022-08-26T18:49:47.799Z,23.26
2022-08-26T18:52:15.044Z,23.23
2022-08-26T18:54:41.632Z,22.92
2022-08-26T18:57:08.055Z,22.52
2022-08-26T18:59:34.752Z,22.54
2022-08-26T19:02:01.549Z,22.41
2022-08-26T19:04:28.166Z,22.59
2022-08-26T19:06:57.652Z,22.60
2022-08-26T19:09:26.268Z,22.77
2022-08-26T19:11:52.859Z,22.68
2022-08-26T19:14:19.350Z,22.54
2022-08-26T19:16:48.214Z,22.45
2022-08-26T19:19:16.506Z,22.28
2022-08-26T19:21:43.057Z,22.38
2022-08-26T19:24:15.666Z,22.38
2022-08-26T19:26:57.459Z,22.13
2022-08-26T19:29:34.487Z,22.23
2022-08-26T19:32:02.009Z,22.04
2022-08-26T19:34:28.638Z,22.13
2022-08-26T19:36:57.008Z,22.23
2022-08-26T19:39:24.120Z,22.09
2022-08-26T19:41:51.724Z,22.00
2022-08-26T19:44:39.417Z,22.29
2022-08-26T19:47:09.784Z,22.01
2022-08-26T19:49:36.858Z,22.03
2022-08-26T19:52:06.649Z,22.03
2022-08-26T19:54:34.561Z,22.02
2022-08-26T19:57:00.991Z,21.93
2022-08-26T19:59:27.465Z,21.88
2022-08-26T20:02:01.514Z,21.81
2022-08-26T20:04:30.718Z,21.89
2022-08-26T20:07:01.217Z,21.88
2022-08-26T20:09:32.613Z,21.81
2022-08-26T20:11:59.159Z,21.54
2022-08-26T20:14:29.842Z,21.51
2022-08-26T20:16:56.909Z,21.65
2022-08-26T20:19:45.222Z,21.58
2022-08-26T20:22:12.885Z,21.75
2022-08-26T20:24:40.172Z,21.75
2022-08-26T20:27:07.888Z,21.85
2022-08-26T20:29:35.590Z,21.81
2022-08-26T20:32:02.721Z,21.59
2022-08-26T20:34:31.006Z,21.35
2022-08-26T20:36:58.245Z,21.27
2022-08-26T20:39:28.778Z,21.03
2022-08-26T20:41:57.375Z,21.15
2022-08-26T20:44:25.076Z,21.22
2022-08-26T20:46:51.523Z,21.32
2022-08-26T20:49:18.976Z,21.30
2022-08-26T20:51:51.348Z,21.25
2022-08-26T20:54:19.859Z,21.35
2022-08-26T20:56:46.979Z,21.25
2022-08-26T20:59:14.487Z,21.32
2022-08-26T21:01:42.369Z,21.19
2022-08-26T21:04:18.182Z,21.28
2022-08-26T21:06:52.461Z,21.38
2022-08-26T21:09:21.585Z,21.49
2022-08-26T21:11:48.175Z,21.56
2022-08-26T21:14:17.283Z,21.44
2022-08-26T21:16:45.173Z,21.52
2022-08-26T21:19:15.801Z,21.53
2022-08-26T21:21:42.714Z,21.56
2022-08-26T21:24:09.577Z,21.41
2022-08-26T21:26:36.649Z,21.40
2022-08-26T21:29:04.401Z,21.47
2022-08-26T21:31:32.065Z,21.49
2022-08-26T21:33:59.038Z,21.46
2022-08-26T21:36:26.476Z,21.57
2022-08-26T21:38:56.045Z,21.62
2022-08-26T21:41:22.605Z,21.64
2022-08-26T21:43:52.007Z,21.54
2022-08-26T21:46:22.676Z,21.50
2022-08-26T21:48:53.952Z,21.32
2022-08-26T21:51:22.915Z,21.51
2022-08-26T21:53:50.458Z,21.48
2022-08-26T21:56:18.810Z,21.57
2022-08-26T21:58:46.631Z,21.51
2022-08-26T22:01:16.959Z,21.58
2022-08-26T22:03:44.739Z,21.46
2022-08-26T22:06:17.941Z,21.47
2022-08-26T22:08:44.510Z,21.53
2022-08-26T22:11:11.651Z,21.63
2022-08-26T22:13:40.119Z,21.38
2022-08-26T22:16:07.575Z,21.45
2022-08-26T22:18:34.821Z,21.49
2022-08-26T22:21:06.515Z,21.32
2022-08-26T22:23:34.432Z,21.42
2022-08-26T22:26:01.055Z,21.38
2022-08-26T22:28:28.161Z,21.29
2022-08-26T22:30:55.674Z,21.29
2022-08-26T22:33:22.906Z,21.37
2022-08-26T22:35:51.148Z,21.30
2022-08-26T22:38:17.739Z,21.17
2022-08-26T22:40:56.129Z,21.34
2022-08-26T22:43:24.131Z,21.32
2022-08-26T22:45:51.270Z,21.22
2022-08-26T22:48:21.816Z,21.14
2022-08-26T22:50:49.524Z,21.17
2022-08-26T22:53:17.399Z,21.08
2022-08-26T22:55:45.778Z,21.02
2022-08-26T22:58:14.600Z,21.28
2022-08-26T23:00:42.608Z,21.28
2022-08-26T23:03:11.394Z,21.13
2022-08-26T23:05:39.398Z,21.01
2022-08-26T23:08:06.512Z,21.10
2022-08-26T23:10:33.289Z,21.06
2022-08-26T23:13:00.013Z,20.89
2022-08-26T23:15:26.579Z,20.76
2022-08-26T23:17:58.556Z,20.75
2022-08-26T23:20:27.390Z,20.86
2022-08-26T23:22:54.729Z,20.93
2022-08-26T23:25:24.650Z,21.04
2022-08-26T23:27:52.531Z,20.94
2022-08-26T23:30:26.843Z,20.95
2022-08-26T23:32:53.760Z,21.08
2022-08-26T23:35:24.314Z,21.12
2022-08-26T23:37:52.954Z,21.00
2022-08-26T23:40:25.465Z,20.96
2022-08-26T23:42:53.880Z,20.82
2022-08-26T23:45:21.018Z,20.84
2022-08-26T23:47:51.012Z,20.95
2022-08-26T23:50:21.177Z,21.04
2022-08-26T23:53:06.084Z,21.04
2022-08-26T23:55:37.148Z,21.13
2022-08-26T23:58:05.220Z,21.04
